Time;durP1;ratioP1;P1;durP2;ratioP2;P2;SDS_P1;SDS_P2;PMS_P1;PMS_P2;Temp;Humidity;BMP_temperature;BMP_pressure;BME280_temperature;BME280_humidity;BME280_pressure;Samples;Min_cycle;Max_cycle;Signal;HPM_P1;HPM_P2
2022/07/23 00:01:33;;;;;;;10.98;9.88;;;;;;;21.65;68.56;96650.58;1727367;82;21013;-86
2022/07/23 00:03:59;;;;;;;10.58;9.60;;;;;;;21.62;68.72;96648.40;1698376;83;21521;-85
2022/07/23 00:06:25;;;;;;;11.73;8.85;;;;;;;21.58;68.70;96649.42;1683895;83;20992;-85
2022/07/23 00:08:50;;;;;;;9.60;8.70;;;;;;;21.56;68.90;96646.22;1685797;85;20955;-85
2022/07/23 00:11:16;;;;;;;10.00;8.85;;;;;;;21.56;68.83;96653.36;1685178;84;21008;-85
2022/07/23 00:13:42;;;;;;;9.33;8.53;;;;;;;21.52;68.50;96645.13;1685126;85;20932;-85
2022/07/23 00:16:08;;;;;;;9.55;8.43;;;;;;;21.49;68.39;96646.14;1684611;84;21127;-85
2022/07/23 00:18:34;;;;;;;9.83;8.85;;;;;;;21.46;68.51;96644.75;1684845;84;20970;-85
2022/07/23 00:20:59;;;;;;;10.13;9.10;;;;;;;21.42;68.52;96644.97;1656601;85;21042;-86
2022/07/23 00:23:26;;;;;;;10.48;9.20;;;;;;;21.31;68.45;96631.85;1724061;82;20958;-87
2022/07/23 00:25:52;;;;;;;10.90;8.78;;;;;;;21.31;68.45;96631.85;1734633;82;20991;-87
2022/07/23 00:28:18;;;;;;;10.32;8.43;;;;;;;21.33;68.59;96646.45;1726571;82;21008;-86
2022/07/23 00:30:46;;;;;;;11.05;8.53;;;;;;;21.33;68.57;96649.09;1741123;82;21403;-85
2022/07/23 00:33:11;;;;;;;9.13;8.18;;;;;;;21.31;68.35;96652.47;1744485;82;21003;-87
2022/07/23 00:35:42;;;;;;;9.78;8.70;;;;;;;21.31;68.27;96660.92;1734368;82;21974;-85
2022/07/23 00:38:09;;;;;;;9.63;8.70;;;;;;;21.27;68.27;96657.97;1751514;82;21007;-86
2022/07/23 00:40:35;;;;;;;10.08;9.08;;;;;;;21.22;68.35;96654.72;1739898;82;20986;-86
2022/07/23 00:43:01;;;;;;;9.05;8.25;;;;;;;21.20;68.45;96656.80;1743717;82;20939;-86
2022/07/23 00:45:27;;;;;;;9.28;7.70;;;;;;;21.11;68.54;96649.51;1743777;82;21033;-85
2022/07/23 00:47:52;;;;;;;9.43;8.38;;;;;;;21.16;68.33;96657.53;1714523;82;20925;-85
2022/07/23 00:50:18;;;;;;;9.45;8.55;;;;;;;21.09;68.08;96643.15;1740919;82;20975;-85
2022/07/23 00:52:44;;;;;;;8.43;7.67;;;;;;;21.15;68.04;96651.94;1742659;82;20932;-85
2022/07/23 00:55:10;;;;;;;9.20;8.30;;;;;;;21.15;67.86;96647.98;1729384;82;20920;-85
2022/07/23 00:57:37;;;;;;;8.68;7.80;;;;;;;21.11;67.90;96651.62;1735559;82;21032;-87
2022/07/23 01:00:05;;;;;;;9.03;8.05;;;;;;;21.09;68.05;96649.75;1735098;82;21005;-87
2022/07/23 01:02:31;;;;;;;8.93;8.00;;;;;;;21.07;67.97;96649.20;1703615;82;20968;-87
2022/07/23 01:04:56;;;;;;;8.80;8.00;;;;;;;21.04;67.94;96650.21;1742484;82;20947;-86
2022/07/23 01:07:22;;;;;;;10.48;8.63;;;;;;;21.02;67.87;96641.20;1741609;82;20940;-87
2022/07/23 01:09:48;;;;;;;8.60;7.80;;;;;;;21.03;68.34;96645.97;1751339;82;21421;-85
2022/07/23 01:12:13;;;;;;;9.55;8.75;;;;;;;21.03;68.34;96645.97;1745578;82;20972;-85
2022/07/23 01:14:39;;;;;;;9.23;8.33;;;;;;;21.01;68.26;96646.73;1753452;81;20952;-85
2022/07/23 01:17:05;;;;;;;9.48;8.58;;;;;;;21.00;68.27;96643.30;1734411;82;22106;-85
2022/07/23 01:19:32;;;;;;;10.60;9.48;;;;;;;20.97;68.56;96641.91;1738663;82;20948;-85
2022/07/23 01:21:58;;;;;;;10.93;9.23;;;;;;;20.95;68.73;96640.03;1740528;81;20970;-85
2022/07/23 01:24:24;;;;;;;10.68;8.78;;;;;;;20.94;69.09;96642.92;1728144;82;20955;-86
2022/07/23 01:26:50;;;;;;;10.32;9.03;;;;;;;20.94;69.46;96637.63;1729798;82;20968;-86
2022/07/23 01:29:16;;;;;;;10.48;9.13;;;;;;;20.95;69.40;96639.23;1736268;82;20943;-86
2022/07/23 01:31:42;;;;;;;9.80;8.83;;;;;;;20.92;69.44;96627.83;1726760;82;21049;-85
2022/07/23 01:34:08;;;;;;;10.25;9.08;;;;;;;20.94;69.58;96634.47;1739683;82;20967;-85
2022/07/23 01:36:36;;;;;;;11.48;9.33;;;;;;;20.93;69.73;96630.75;1730365;82;21028;-85
2022/07/23 01:39:05;;;;;;;9.98;9.08;;;;;;;20.91;69.95;96634.16;1716628;83;21015;-85
2022/07/23 01:41:30;;;;;;;9.73;8.75;;;;;;;20.89;70.04;96631.77;1703716;82;21016;-86
2022/07/23 01:43:56;;;;;;;10.58;9.53;;;;;;;20.88;69.96;96634.13;1733020;82;20979;-85
2022/07/23 01:46:22;;;;;;;9.55;8.65;;;;;;;20.90;69.92;96633.36;1742211;82;20999;-86
2022/07/23 01:48:48;;;;;;;9.48;8.55;;;;;;;20.89;69.75;96631.77;1752287;82;20986;-86
2022/07/23 01:51:13;;;;;;;9.20;8.40;;;;;;;20.89;69.59;96636.24;1754695;82;20927;-85
2022/07/23 01:53:39;;;;;;;8.90;8.10;;;;;;;20.86;69.25;96628.28;1739460;81;20960;-85
2022/07/23 01:56:06;;;;;;;9.78;8.03;;;;;;;20.84;69.01;96632.21;1722919;82;21011;-85
2022/07/23 01:58:32;;;;;;;8.88;7.97;;;;;;;20.82;68.88;96634.27;1714552;83;20976;-85
2022/07/23 02:00:58;;;;;;;8.45;7.42;;;;;;;20.78;68.57;96627.35;1720123;82;20980;-85
2022/07/23 02:03:24;;;;;;;8.95;7.97;;;;;;;20.76;68.47;96628.11;1736274;82;20916;-85
2022/07/23 02:05:49;;;;;;;8.58;7.67;;;;;;;20.76;68.44;96627.31;1752419;82;20988;-85
2022/07/23 02:08:15;;;;;;;8.98;8.18;;;;;;;20.75;68.48;96620.44;1735987;82;20947;-86
2022/07/23 02:10:41;;;;;;;9.75;8.08;;;;;;;20.73;68.30;96621.20;1727796;82;21005;-85
2022/07/23 02:13:07;;;;;;;14.15;8.25;;;;;;;20.71;68.32;96620.12;1701939;82;21044;-85
2022/07/23 02:15:33;;;;;;;9.08;8.18;;;;;;;20.65;68.40;96620.53;1716118;81;20950;-86
2022/07/23 02:17:58;;;;;;;8.38;7.58;;;;;;;20.65;68.40;96620.53;1725753;81;21023;-87
2022/07/23 02:20:25;;;;;;;7.80;7.00;;;;;;;20.63;68.26;96624.46;1716340;81;20995;-87
2022/07/23 02:22:50;;;;;;;8.80;7.62;;;;;;;20.62;68.16;96626.82;1693716;84;21359;-87
2022/07/23 02:25:16;;;;;;;8.73;7.37;;;;;;;20.61;67.89;96628.66;1679116;84;21033;-87
2022/07/23 02:27:42;;;;;;;9.15;7.90;;;;;;;20.62;68.06;96628.14;1708702;83;20982;-85
2022/07/23 02:30:09;;;;;;;7.80;7.10;;;;;;;20.62;68.08;96626.30;1675186;84;20983;-86
2022/07/23 02:32:35;;;;;;;8.10;7.30;;;;;;;20.62;68.10;96634.74;1680987;85;20989;-85
2022/07/23 02:35:01;;;;;;;8.73;7.80;;;;;;;20.59;68.02;96630.75;1677191;84;21306;-87
2022/07/23 02:37:26;;;;;;;7.75;6.97;;;;;;;20.56;68.06;96623.30;1683749;85;20953;-85
2022/07/23 02:39:53;;;;;;;8.60;7.75;;;;;;;20.53;68.04;96628.27;1677120;85;21001;-84
2022/07/23 02:42:19;;;;;;;8.40;7.53;;;;;;;20.49;67.97;96626.60;1674237;85;20969;-87
2022/07/23 02:44:44;;;;;;;7.90;7.12;;;;;;;20.44;67.94;96617.81;1679883;85;20988;-87
2022/07/23 02:47:10;;;;;;;7.70;7.00;;;;;;;20.44;67.94;96617.81;1664357;85;21028;-86
2022/07/23 02:49:36;;;;;;;8.40;7.60;;;;;;;20.50;68.02;96625.59;1680038;85;20929;-87
2022/07/23 02:52:02;;;;;;;9.05;8.23;;;;;;;20.49;67.89;96625.80;1668363;84;21146;-86
2022/07/23 02:54:28;;;;;;;8.63;7.75;;;;;;;20.46;67.83;96623.64;1683613;85;21059;-86
2022/07/23 02:56:54;;;;;;;9.80;8.00;;;;;;;20.44;67.90;96623.09;1662449;85;21092;-87
2022/07/23 02:59:19;;;;;;;8.90;8.00;;;;;;;20.41;68.08;96623.53;1659781;85;21399;-87
2022/07/23 03:01:45;;;;;;;8.78;7.97;;;;;;;20.38;68.09;96620.34;1678833;85;21012;-86
2022/07/23 03:04:11;;;;;;;9.13;7.67;;;;;;;20.35;68.24;96622.14;1671598;85;21025;-86
2022/07/23 03:06:37;;;;;;;9.00;8.08;;;;;;;20.34;68.36;96621.86;1660073;85;20973;-86
2022/07/23 03:09:04;;;;;;;8.60;7.80;;;;;;;20.35;68.50;96618.70;1679978;85;20992;-86
2022/07/23 03:11:30;;;;;;;9.28;7.90;;;;;;;20.36;68.72;96607.10;1668961;84;21410;-85
2022/07/23 03:13:55;;;;;;;8.93;8.13;;;;;;;20.36;68.99;96621.09;1655589;85;20961;-86
2022/07/23 03:16:21;;;;;;;9.73;8.73;;;;;;;20.35;69.09;96615.55;1661164;84;21048;-85
2022/07/23 03:18:47;;;;;;;9.38;8.38;;;;;;;20.34;69.20;96617.90;1677282;85;21000;-86
2022/07/23 03:21:14;;;;;;;9.08;8.25;;;;;;;20.32;69.27;96620.47;1694736;84;21036;-86
2022/07/23 03:23:40;;;;;;;11.18;8.55;;;;;;;20.34;69.43;96614.46;1684267;84;21036;-84
2022/07/23 03:26:06;;;;;;;9.78;8.30;;;;;;;20.35;69.52;96612.10;1678313;84;21003;-85
2022/07/23 03:28:32;;;;;;;11.22;8.45;;;;;;;20.22;69.52;96596.04;1675506;85;21343;-86
2022/07/23 03:30:57;;;;;;;9.68;8.68;;;;;;;20.35;69.60;96614.22;1676988;84;21306;-87
2022/07/23 03:33:23;;;;;;;9.28;8.15;;;;;;;20.35;69.64;96610.27;1688046;84;20921;-85
2022/07/23 03:35:49;;;;;;;9.95;9.08;;;;;;;20.35;69.73;96616.06;1734467;81;20940;-85
2022/07/23 03:38:15;;;;;;;9.38;8.30;;;;;;;20.34;69.96;96620.53;1734951;82;20998;-85
2022/07/23 03:40:41;;;;;;;8.98;8.05;;;;;;;20.33;70.12;96614.95;1726705;81;20965;-85
2022/07/23 03:43:07;;;;;;;8.83;8.03;;;;;;;20.36;70.15;96618.98;1733463;81;21013;-85
2022/07/23 03:45:32;;;;;;;9.63;8.05;;;;;;;20.37;70.09;96615.30;1704407;83;20996;-85
2022/07/23 03:47:58;;;;;;;9.43;8.33;;;;;;;20.38;70.07;96615.06;1724299;82;21081;-85
2022/07/23 03:50:25;;;;;;;9.20;8.30;;;;;;;20.39;70.06;96625.09;1665370;85;20987;-85
2022/07/23 03:52:50;;;;;;;8.53;7.72;;;;;;;20.39;69.96;96614.54;1684419;84;21000;-85
2022/07/23 03:55:17;;;;;;;8.90;8.00;;;;;;;20.41;69.99;96616.94;1712328;82;21091;-84
2022/07/23 03:57:43;;;;;;;8.75;7.92;;;;;;;20.41;70.04;96617.77;1733164;82;21401;-87
2022/07/23 04:00:09;;;;;;;9.58;7.87;;;;;;;20.44;70.01;96615.97;1727566;81;21006;-86
2022/07/23 04:02:39;;;;;;;9.28;8.35;;;;;;;20.47;70.01;96618.13;1737448;81;21361;-84
2022/07/23 04:05:06;;;;;;;8.65;7.75;;;;;;;20.48;70.08;96614.45;1692090;83;21031;-85
2022/07/23 04:07:32;;;;;;;8.65;7.75;;;;;;;20.47;70.09;96606.25;1723472;81;20960;-85
2022/07/23 04:09:57;;;;;;;8.20;7.40;;;;;;;20.46;70.04;96606.48;1746739;81;20911;-86
2022/07/23 04:12:23;;;;;;;8.90;8.00;;;;;;;20.46;69.94;96607.81;1715811;81;20984;-85
2022/07/23 04:14:49;;;;;;;7.80;7.10;;;;;;;20.50;69.91;96611.56;1712561;81;21007;-86
2022/07/23 04:17:15;;;;;;;8.58;7.58;;;;;;;20.53;70.05;96612.44;1708425;81;21071;-85
2022/07/23 04:19:43;;;;;;;9.18;7.97;;;;;;;20.58;70.32;96613.83;1738917;81;21337;-85
2022/07/23 04:22:11;;;;;;;9.40;7.97;;;;;;;20.58;70.55;96609.34;1723765;81;21004;-87
2022/07/23 04:24:37;;;;;;;9.40;8.35;;;;;;;20.57;70.82;96602.98;1691344;83;21387;-87
2022/07/23 04:27:03;;;;;;;8.75;7.97;;;;;;;20.54;70.91;96610.07;1684153;84;20964;-87
2022/07/23 04:29:29;;;;;;;8.58;7.67;;;;;;;20.53;71.08;96611.91;1660072;84;21000;-85
2022/07/23 04:31:55;;;;;;;9.28;8.35;;;;;;;20.53;71.18;96611.11;1677714;84;20975;-87
2022/07/23 04:34:20;;;;;;;8.03;7.33;;;;;;;20.58;71.13;96611.98;1663163;84;20964;-86
2022/07/23 04:36:46;;;;;;;8.68;7.78;;;;;;;20.61;71.35;96604.91;1665783;84;21060;-87
2022/07/23 04:39:12;;;;;;;8.25;7.22;;;;;;;20.64;71.47;96606.26;1659833;85;20953;-86
2022/07/23 04:41:38;;;;;;;7.75;7.08;;;;;;;20.63;71.56;96605.98;1665237;84;20948;-85
2022/07/23 04:44:04;;;;;;;8.65;7.67;;;;;;;20.61;71.64;96595.66;1684377;84;20992;-85
2022/07/23 04:46:30;;;;;;;8.60;7.80;;;;;;;20.59;71.81;96598.27;1676753;84;21415;-85
2022/07/23 04:48:56;;;;;;;9.08;7.92;;;;;;;20.57;71.90;96597.71;1677137;84;20979;-86
2022/07/23 04:51:21;;;;;;;9.05;8.15;;;;;;;20.57;71.97;96599.83;1654663;84;20965;-86
2022/07/23 04:53:47;;;;;;;8.18;7.28;;;;;;;20.60;72.20;96598.55;1660139;84;20968;-85
2022/07/23 04:56:13;;;;;;;8.30;7.55;;;;;;;20.64;72.33;96600.98;1683409;84;21380;-85
2022/07/23 04:58:39;;;;;;;8.30;7.50;;;;;;;20.67;72.46;96600.52;1681712;84;21069;-87
2022/07/23 05:01:05;;;;;;;9.50;7.78;;;;;;;20.71;72.57;96597.67;1683811;84;20980;-84
2022/07/23 05:03:31;;;;;;;8.93;8.13;;;;;;;20.75;72.73;96594.83;1682749;85;21011;-85
2022/07/23 05:06:03;;;;;;;11.73;7.78;;;;;;;20.82;72.76;96603.89;1698968;84;20984;-86
2022/07/23 05:08:29;;;;;;;8.60;7.70;;;;;;;20.85;72.91;96598.95;1675157;84;21433;-86
2022/07/23 05:10:55;;;;;;;8.45;7.55;;;;;;;20.90;72.94;96594.27;1736863;82;21016;-85
2022/07/23 05:13:20;;;;;;;8.50;7.60;;;;;;;20.98;73.11;96594.64;1725190;82;21015;-85
2022/07/23 05:15:46;;;;;;;8.18;7.35;;;;;;;21.09;73.26;96597.44;1722129;81;21514;-85
2022/07/23 05:18:12;;;;;;;8.45;7.00;;;;;;;21.19;73.31;96601.03;1729890;82;20972;-85
2022/07/23 05:20:38;;;;;;;7.85;7.08;;;;;;;21.27;73.36;96597.98;1707090;82;20984;-85
2022/07/23 05:23:04;;;;;;;8.13;7.33;;;;;;;21.34;73.36;96597.83;1697495;82;20988;-85
2022/07/23 05:25:29;;;;;;;8.13;7.33;;;;;;;21.39;73.65;96591.28;1713484;82;21366;-86
2022/07/23 05:27:55;;;;;;;8.55;7.40;;;;;;;21.42;73.35;96593.42;1726367;82;21322;-86
2022/07/23 05:30:21;;;;;;;9.58;7.62;;;;;;;21.45;73.36;96597.42;1724858;82;21042;-86
2022/07/23 05:32:46;;;;;;;7.85;7.15;;;;;;;21.48;73.43;96593.78;1719686;82;20994;-87
2022/07/23 05:35:12;;;;;;;7.83;7.08;;;;;;;21.52;73.55;96586.95;1706277;82;20976;-85
2022/07/23 05:37:38;;;;;;;8.80;8.10;;;;;;;21.57;73.65;96588.86;1702418;83;21028;-85
2022/07/23 05:40:07;;;;;;;8.40;7.60;;;;;;;21.61;73.96;96580.70;1714151;82;21043;-86
2022/07/23 05:42:38;;;;;;;9.08;7.87;;;;;;;21.64;74.22;96574.94;1705983;82;20964;-85
2022/07/23 05:45:05;;;;;;;8.97;8.07;;;;;;;21.69;74.28;96567.06;1709926;82;21031;-86
2022/07/23 05:47:47;;;;;;;8.93;8.10;;;;;;;21.69;74.28;96567.06;1715212;82;21722;-87
2022/07/23 05:50:13;;;;;;;8.43;7.62;;;;;;;21.80;74.58;96576.72;1674161;85;21086;-85
2022/07/23 05:52:39;;;;;;;8.85;8.05;;;;;;;21.85;74.75;96568.83;1700283;82;21000;-85
2022/07/23 05:55:07;;;;;;;9.08;8.03;;;;;;;21.90;74.69;96562.78;1658789;85;21051;-85
2022/07/23 05:57:32;;;;;;;9.25;8.30;;;;;;;21.94;74.76;96559.11;1717770;82;20991;-85
2022/07/23 05:59:58;;;;;;;8.88;8.08;;;;;;;21.96;74.81;96556.48;1707234;82;21345;-85
2022/07/23 06:02:24;;;;;;;9.15;8.23;;;;;;;21.99;75.07;96554.69;1720732;82;20980;-86
2022/07/23 06:04:50;;;;;;;8.48;7.50;;;;;;;22.05;75.23;96554.23;1668931;85;20996;-85
2022/07/23 06:07:15;;;;;;;9.73;8.68;;;;;;;;;;1687088;84;20896;-84
2022/07/23 06:09:44;;;;;;;9.10;8.20;;;;;;;22.15;75.09;96551.17;1725855;82;21048;-86
2022/07/23 06:12:09;;;;;;;9.65;8.08;;;;;;;22.21;74.58;96549.36;1713781;82;21504;-86
2022/07/23 06:14:35;;;;;;;9.18;8.28;;;;;;;22.25;74.88;96542.50;1732956;81;20963;-87
2022/07/23 06:17:01;;;;;;;9.50;8.50;;;;;;;22.31;75.03;96538.08;1718394;82;21024;-86
2022/07/23 06:19:27;;;;;;;9.08;8.13;;;;;;;22.36;75.58;96540.23;1690586;84;21342;-84
2022/07/23 06:21:52;;;;;;;9.05;8.25;;;;;;;22.40;74.93;96539.98;1668238;84;21028;-86
2022/07/23 06:24:18;;;;;;;9.25;8.35;;;;;;;22.50;74.86;96547.23;1677673;84;20948;-86
2022/07/23 06:26:44;;;;;;;9.45;8.65;;;;;;;22.59;74.61;96548.34;1699398;82;21391;-85
2022/07/23 06:29:10;;;;;;;11.43;10.20;;;;;;;22.67;75.18;96550.53;1678691;84;20964;-82
2022/07/23 06:31:36;;;;;;;11.50;9.08;;;;;;;22.78;74.90;96552.73;1681049;84;21361;-86
2022/07/23 06:34:02;;;;;;;9.73;8.83;;;;;;;22.87;75.00;96552.55;1677718;85;20948;-86
2022/07/23 06:36:27;;;;;;;10.25;9.23;;;;;;;22.96;75.12;96554.20;1678844;84;21050;-85
2022/07/23 06:38:53;;;;;;;10.55;9.45;;;;;;;23.03;74.97;96548.14;1719635;82;20948;-86
2022/07/23 06:41:19;;;;;;;10.00;9.10;;;;;;;23.14;74.61;96549.00;1740245;82;21374;-84
2022/07/23 06:43:45;;;;;;;10.68;9.35;;;;;;;23.21;74.71;96550.36;1703053;83;20956;-85
2022/07/23 06:46:10;;;;;;;10.80;9.80;;;;;;;23.28;74.57;96553.59;1679541;84;21017;-85
2022/07/23 06:48:36;;;;;;;10.23;9.03;;;;;;;23.37;74.52;96544.59;1691315;84;21608;-85
2022/07/23 06:51:03;;;;;;;11.95;10.80;;;;;;;23.46;74.38;96552.87;1675144;84;21042;-86
2022/07/23 06:53:29;;;;;;;14.55;11.95;;;;;;;23.55;73.63;96547.31;1720989;82;21351;-86
2022/07/23 06:55:55;;;;;;;11.90;10.70;;;;;;;23.66;73.00;96545.01;1710931;82;20987;-86
2022/07/23 06:58:20;;;;;;;11.28;10.28;;;;;;;23.82;73.17;96546.64;1723779;82;20999;-85
2022/07/23 07:00:46;;;;;;;11.88;10.78;;;;;;;23.93;73.46;96551.45;1733132;82;21643;-84
2022/07/23 07:03:12;;;;;;;13.03;11.80;;;;;;;24.01;73.19;96547.48;1733662;82;20959;-85
2022/07/23 07:05:39;;;;;;;11.85;10.65;;;;;;;24.10;72.97;96549.90;1715067;82;21023;-85
2022/07/23 07:08:05;;;;;;;13.28;11.97;;;;;;;24.18;73.07;96556.00;1716329;82;20931;-86
2022/07/23 07:10:33;;;;;;;14.10;12.60;;;;;;;24.27;71.92;96552.30;1732012;82;20952;-86
2022/07/23 07:12:59;;;;;;;13.53;11.45;;;;;;;24.38;71.30;96553.91;1734199;82;21020;-86
2022/07/23 07:15:26;;;;;;;12.70;11.57;;;;;;;24.49;71.15;96560.30;1725983;82;21537;-86
2022/07/23 07:17:52;;;;;;;13.30;12.10;;;;;;;24.61;71.22;96553.41;1730203;81;21036;-86
2022/07/23 07:20:20;;;;;;;13.50;12.30;;;;;;;24.71;70.64;96555.23;1728804;81;21043;-86
2022/07/23 07:22:46;;;;;;;13.43;12.15;;;;;;;24.80;70.49;96562.95;1745116;81;21090;-85
2022/07/23 07:25:12;;;;;;;12.95;11.70;;;;;;;24.87;71.37;96567.98;1732672;81;21012;-87
2022/07/23 07:27:38;;;;;;;13.22;11.40;;;;;;;24.94;69.50;96559.21;1736935;81;20987;-84
2022/07/23 07:30:05;;;;;;;13.40;12.10;;;;;;;25.05;69.11;96564.25;1741781;81;20948;-87
2022/07/23 07:32:32;;;;;;;12.33;11.30;;;;;;;25.17;69.11;96559.19;1737606;81;21406;-87
2022/07/23 07:34:58;;;;;;;13.35;11.95;;;;;;;25.28;69.68;96560.22;1728938;81;20971;-87
2022/07/23 07:37:24;;;;;;;14.13;12.88;;;;;;;25.37;68.59;96564.44;1730549;81;20968;-87
2022/07/23 07:39:50;;;;;;;12.65;11.12;;;;;;;25.47;68.22;96564.41;1732164;81;20938;-88
2022/07/23 07:42:15;;;;;;;13.08;11.88;;;;;;;25.54;68.99;96564.90;1731086;81;20953;-86
2022/07/23 07:44:41;;;;;;;13.88;12.68;;;;;;;25.57;68.27;96560.39;1727204;81;21054;-87
2022/07/23 07:47:07;;;;;;;13.22;12.15;;;;;;;25.62;67.69;96565.68;1738693;81;20971;-86
2022/07/23 07:49:33;;;;;;;13.65;12.43;;;;;;;25.71;67.51;96567.28;1736505;81;21287;-87
2022/07/23 07:51:59;;;;;;;12.05;10.95;;;;;;;25.81;67.36;96567.22;1749439;81;21006;-87
2022/07/23 07:54:25;;;;;;;12.93;11.70;;;;;;;25.93;67.18;96560.23;1754611;81;20975;-88
2022/07/23 07:56:51;;;;;;;13.08;11.78;;;;;;;26.13;67.36;96562.77;1738923;81;21064;-88
2022/07/23 07:59:16;;;;;;;12.98;11.78;;;;;;;26.13;67.36;96562.77;1739642;81;21374;-86
2022/07/23 08:01:42;;;;;;;14.38;12.95;;;;;;;26.25;66.77;96563.77;1744949;81;21104;-86
2022/07/23 08:04:08;;;;;;;13.13;11.78;;;;;;;26.40;66.13;96564.23;1738628;81;21011;-86
2022/07/23 08:06:33;;;;;;;13.32;11.70;;;;;;;26.58;65.58;96565.68;1739295;81;21342;-88
2022/07/23 08:08:59;;;;;;;12.60;11.40;;;;;;;26.75;65.52;96567.94;1751713;81;20973;-88
2022/07/23 08:11:25;;;;;;;12.55;11.35;;;;;;;26.89;65.30;96558.75;1726759;81;21009;-89
2022/07/23 08:13:50;;;;;;;12.35;11.15;;;;;;;27.05;63.86;96552.76;1752234;81;21333;-89
2022/07/23 08:16:17;;;;;;;12.13;11.03;;;;;;;27.24;63.26;96540.28;1744597;81;21121;-89
2022/07/23 08:18:43;;;;;;;12.70;11.45;;;;;;;27.41;63.86;96543.28;1752187;81;20959;-89
2022/07/23 08:21:09;;;;;;;14.60;12.55;;;;;;;27.45;64.03;96541.63;1735577;81;20943;-88
2022/07/23 08:23:35;;;;;;;12.65;11.35;;;;;;;27.38;64.07;96534.52;1731753;81;21012;-89
2022/07/23 08:26:02;;;;;;;13.13;11.88;;;;;;;27.43;63.00;96533.11;1740570;81;20951;-89
2022/07/23 08:28:28;;;;;;;12.95;11.60;;;;;;;27.46;62.70;96521.06;1730687;81;20971;-89
2022/07/23 08:30:53;;;;;;;12.58;11.38;;;;;;;27.62;62.37;96530.47;1747108;81;20995;-88
2022/07/23 08:33:19;;;;;;;12.07;10.85;;;;;;;27.70;62.19;96518.41;1751063;81;21359;-88
2022/07/23 08:35:47;;;;;;;12.50;11.28;;;;;;;27.72;61.30;96525.04;1747390;81;20998;-88
2022/07/23 08:38:15;;;;;;;12.15;11.00;;;;;;;27.76;61.87;96529.26;1751317;81;21046;-88
2022/07/23 08:40:44;;;;;;;12.40;11.20;;;;;;;27.83;62.36;96531.59;1732628;82;21325;-87
2022/07/23 08:43:23;;;;;;;12.00;10.90;;;;;;;27.84;62.57;96524.63;1750753;81;21389;-86
2022/07/23 08:45:50;;;;;;;13.18;10.18;;;;;;;27.85;62.19;96528.08;1746299;81;20941;-86
2022/07/23 08:48:22;;;;;;;12.50;11.20;;;;;;;27.91;61.34;96529.05;1714129;81;21501;-88
2022/07/23 08:50:57;;;;;;;11.63;10.55;;;;;;;28.01;61.06;96527.58;1760108;81;20978;-88
2022/07/23 08:53:24;;;;;;;11.65;10.55;;;;;;;28.13;62.02;96523.66;1728322;81;21438;-87
2022/07/23 08:55:52;;;;;;;12.03;10.78;;;;;;;28.22;61.25;96525.93;1724143;80;21152;-86
2022/07/23 08:58:19;;;;;;;11.35;10.30;;;;;;;28.35;60.41;96526.02;1729414;81;21859;-87
2022/07/23 09:00:45;;;;;;;10.80;9.80;;;;;;;28.50;60.74;96520.18;1737028;81;21041;-87
2022/07/23 09:03:18;;;;;;;11.28;10.35;;;;;;;28.64;58.86;96523.69;1738265;81;20953;-87
2022/07/23 09:05:44;;;;;;;10.85;9.85;;;;;;;28.78;59.74;96530.38;1744794;81;20954;-88
2022/07/23 09:08:12;;;;;;;10.60;9.63;;;;;;;28.91;58.39;96533.11;1718600;83;21056;-88
2022/07/23 09:10:59;;;;;;;10.80;9.70;;;;;;;29.02;57.15;96538.28;1725784;81;21041;-90
2022/07/23 09:13:45;;;;;;;9.68;8.78;;;;;;;29.09;56.90;96538.67;1717562;82;21334;-88
2022/07/23 09:16:20;;;;;;;9.90;8.90;;;;;;;29.06;54.98;96515.20;1729797;81;20967;-88
2022/07/23 09:18:58;;;;;;;9.13;8.33;;;;;;;29.35;54.65;96529.08;1710768;81;21045;-89
2022/07/23 09:21:29;;;;;;;9.15;8.35;;;;;;;29.48;53.79;96530.20;1732107;81;21006;-87
2022/07/23 09:24:04;;;;;;;10.08;9.08;;;;;;;29.61;53.91;96525.89;1736991;81;20995;-86
2022/07/23 09:26:39;;;;;;;9.48;8.18;;;;;;;29.73;56.00;96529.65;1739066;81;20975;-87
2022/07/23 09:29:16;;;;;;;10.20;9.20;;;;;;;29.71;54.18;96532.38;1678425;83;21359;-88
2022/07/23 09:31:53;;;;;;;9.08;8.20;;;;;;;29.81;55.52;96531.63;1713405;83;21012;-88
2022/07/23 09:34:26;;;;;;;9.40;8.50;;;;;;;29.87;52.47;96529.62;1689235;84;20988;-88
2022/07/23 09:36:55;;;;;;;8.65;7.85;;;;;;;29.88;52.66;96533.88;1674940;84;21340;-88
2022/07/23 09:39:30;;;;;;;7.83;7.03;;;;;;;29.86;51.86;96529.38;1699985;83;21467;-89
2022/07/23 09:42:00;;;;;;;7.62;7.03;;;;;;;30.01;50.44;96529.05;1679801;84;21402;-88
2022/07/23 09:44:26;;;;;;;7.53;6.87;;;;;;;30.24;49.78;96525.06;1675386;84;21020;-88
2022/07/23 09:46:52;;;;;;;7.20;6.60;;;;;;;30.43;49.80;96526.48;1698022;84;21016;-88
2022/07/23 09:49:25;;;;;;;7.28;6.60;;;;;;;30.63;48.21;96530.58;1603670;84;21063;-89
2022/07/23 09:52:01;;;;;;;7.83;7.12;;;;;;;30.79;47.28;96523.49;1682127;84;21017;-88
2022/07/23 09:54:37;;;;;;;7.37;6.62;;;;;;;30.91;48.03;96515.09;1686679;84;21000;-88
2022/07/23 09:57:14;;;;;;;7.95;7.05;;;;;;;30.91;49.01;96521.00;1694955;84;21036;-89
2022/07/23 09:59:38;;;;;;;8.03;7.12;;;;;;;30.86;49.83;96518.47;1686768;84;21060;-87
2022/07/23 10:02:06;;;;;;;7.25;6.60;;;;;;;30.74;48.42;96519.03;1678271;84;20992;-88
2022/07/23 10:04:32;;;;;;;7.20;6.55;;;;;;;30.76;49.00;96524.34;1686341;84;21362;-87
2022/07/23 10:07:00;;;;;;;6.85;6.22;;;;;;;30.81;48.23;96523.97;1679316;83;21114;-87
2022/07/23 10:09:29;;;;;;;7.80;7.10;;;;;;;30.87;48.89;96518.16;1696255;84;21013;-88
2022/07/23 10:12:07;;;;;;;8.55;7.75;;;;;;;30.92;48.29;96523.95;1680738;84;20932;-87
2022/07/23 10:14:31;;;;;;;8.15;7.50;;;;;;;30.84;46.43;96517.44;1663755;84;20964;-88
2022/07/23 10:16:56;;;;;;;8.93;8.08;;;;;;;30.84;45.45;96524.14;1697511;83;21491;-89
2022/07/23 10:19:21;;;;;;;7.25;6.65;;;;;;;30.86;45.94;96521.14;1697870;83;21066;-89
2022/07/23 10:21:55;;;;;;;8.00;7.20;;;;;;;30.98;48.35;96510.64;1712347;83;20992;-88
2022/07/23 10:24:52;;;;;;;7.83;7.10;;;;;;;31.11;44.06;96508.41;1716903;83;21007;-88
2022/07/23 10:27:43;;;;;;;8.40;7.62;;;;;;;31.22;46.22;96501.66;1696964;83;21055;-88
2022/07/23 10:30:23;;;;;;;7.72;6.97;;;;;;;31.41;46.06;96506.00;1702446;84;20964;-89
2022/07/23 10:33:13;;;;;;;8.40;7.70;;;;;;;31.58;45.70;96506.05;1699551;83;21050;-89
2022/07/23 10:36:17;;;;;;;8.05;7.40;;;;;;;31.73;43.78;96498.91;1712858;83;21208;-89
2022/07/23 10:38:52;;;;;;;7.92;7.33;;;;;;;31.75;43.29;96497.25;1715643;83;20987;-88
2022/07/23 10:41:33;;;;;;;8.45;7.67;;;;;;;31.73;41.89;96498.91;1700839;84;21004;-88
2022/07/23 10:44:15;;;;;;;8.48;7.67;;;;;;;31.77;43.25;96500.41;1680698;84;20991;-88
2022/07/23 10:49:33;;;;;;;8.55;7.75;;;;;;;32.01;41.95;96493.20;1707144;83;21039;-86
2022/07/23 10:52:22;;;;;;;7.72;7.03;;;;;;;32.03;41.69;96492.34;1722316;83;21100;-87
2022/07/23 10:55:03;;;;;;;7.50;6.90;;;;;;;32.06;41.54;96485.80;1707182;83;20956;-90
2022/07/23 10:57:28;;;;;;;8.10;7.43;;;;;;;32.10;41.67;96484.05;1708098;83;21003;-90
2022/07/23 11:00:12;;;;;;;8.00;7.35;;;;;;;32.19;41.96;96479.44;1703720;83;21317;-90
2022/07/23 11:02:39;;;;;;;8.65;7.90;;;;;;;32.22;41.36;96476.69;1692820;83;20988;-90
2022/07/23 11:05:10;;;;;;;9.40;8.08;;;;;;;32.17;39.94;96474.94;1699763;83;21035;-90
2022/07/23 11:07:39;;;;;;;7.53;6.83;;;;;;;32.12;40.98;96474.32;1704233;83;21126;-88
2022/07/23 11:10:06;;;;;;;8.23;7.53;;;;;;;32.15;40.74;96467.75;1692600;83;21055;-89
2022/07/23 11:12:34;;;;;;;8.30;7.60;;;;;;;32.19;41.15;96467.34;1707531;83;21016;-89
2022/07/23 11:15:14;;;;;;;8.40;7.58;;;;;;;32.15;40.59;96466.41;1697238;83;21002;-89
2022/07/23 11:17:52;;;;;;;7.83;7.22;;;;;;;32.24;42.09;96458.34;1688273;83;20961;-89
2022/07/23 11:20:22;;;;;;;8.23;7.45;;;;;;;32.29;42.32;96466.27;1692320;84;21346;-89
2022/07/23 11:22:52;;;;;;;8.28;7.60;;;;;;;32.24;41.42;96462.38;1754162;82;21003;-88
2022/07/23 11:25:29;;;;;;;8.00;7.40;;;;;;;32.35;41.71;96458.25;1737332;82;20955;-87
2022/07/23 11:28:16;;;;;;;7.72;7.03;;;;;;;32.45;42.13;96456.58;1723670;82;20935;-87
2022/07/23 11:30:45;;;;;;;8.53;7.78;;;;;;;32.44;40.28;96462.28;1723688;82;20979;-88
2022/07/23 11:33:16;;;;;;;8.10;7.30;;;;;;;32.26;40.55;96457.47;1724120;83;21331;-87
2022/07/23 11:35:49;;;;;;;8.15;7.47;;;;;;;32.30;40.45;96459.77;1735014;82;21046;-88